createdAt,value
2023-03-12T00:00:13.268Z,100041.34
2023-03-12T00:02:58.984Z,100055.19
2023-03-12T00:05:45.507Z,100047.44
2023-03-12T00:08:30.984Z,100043.97
2023-03-12T00:11:19.292Z,100037.03
2023-03-12T00:14:04.724Z,100029.22
2023-03-12T00:16:50.124Z,100024.06
2023-03-12T00:19:35.589Z,100024.06
2023-03-12T00:22:23.120Z,100015.38
2023-03-12T00:25:13.984Z,100012.78
2023-03-12T00:27:59.582Z,100022.28
2023-03-12T00:30:45.025Z,100001.53
2023-03-12T00:33:30.721Z,100003.19
2023-03-12T00:36:18.066Z,100001.50
2023-03-12T00:39:03.337Z,99994.56
2023-03-12T00:41:48.694Z,99994.56
2023-03-12T00:44:34.020Z,99990.22
2023-03-12T00:47:19.482Z,99992.81
2023-03-12T00:50:05.414Z,99991.97
2023-03-12T00:52:51.304Z,99990.22
2023-03-12T00:55:36.826Z,99983.31
2023-03-12T00:58:22.336Z,100002.34
2023-03-12T01:01:07.591Z,100001.50
2023-03-12T01:03:53.096Z,100014.47
2023-03-12T01:06:38.707Z,100024.00
2023-03-12T01:09:24.415Z,100021.44
2023-03-12T01:12:10.260Z,100037.94
2023-03-12T01:14:55.636Z,100038.81
2023-03-12T01:17:41.239Z,100045.75
2023-03-12T01:20:26.752Z,100046.63
2023-03-12T01:23:12.403Z,100043.13
2023-03-12T01:25:57.755Z,100062.22
2023-03-12T01:28:43.903Z,100061.31
2023-03-12T01:31:29.413Z,100062.19
2023-03-12T01:34:14.749Z,100057.88
2023-03-12T01:37:00.334Z,100072.56
2023-03-12T01:39:45.550Z,100081.25
2023-03-12T01:42:30.882Z,100079.50
2023-03-12T01:45:53.366Z,100084.72
2023-03-12T01:49:01.788Z,100083.84
2023-03-12T01:51:58.962Z,100086.44
2023-03-12T01:55:03.244Z,100082.94
2023-03-12T01:57:55.303Z,100088.13
2023-03-12T02:00:41.136Z,100089.88
2023-03-12T02:03:27.705Z,100095.94
2023-03-12T02:06:15.738Z,100088.13
2023-03-12T02:09:03.042Z,100088.13
2023-03-12T02:11:49.602Z,100085.53
2023-03-12T02:14:36.328Z,100087.28
2023-03-12T02:17:21.740Z,100095.09
2023-03-12T02:20:16.285Z,100084.69
2023-03-12T02:23:17.113Z,100084.72
2023-03-12T02:26:05.616Z,100107.22
2023-03-12T02:28:51.875Z,100114.16
2023-03-12T02:31:47.975Z,100125.38
2023-03-12T02:34:33.391Z,100109.81
2023-03-12T02:37:19.739Z,100101.16
2023-03-12T02:40:13.928Z,100102.00
2023-03-12T02:43:00.758Z,100110.69
2023-03-12T02:45:46.518Z,100116.72
2023-03-12T02:48:34.161Z,100127.97
2023-03-12T02:51:19.687Z,100119.34
2023-03-12T02:54:05.540Z,100126.25
2023-03-12T02:56:52.099Z,100134.03
2023-03-12T02:59:37.628Z,100120.19
2023-03-12T03:02:24.735Z,100119.34
2023-03-12T03:05:12.354Z,100110.69
2023-03-12T03:07:57.670Z,100102.03
2023-03-12T03:10:43.052Z,100118.50
2023-03-12T03:13:30.028Z,100107.22
2023-03-12T03:16:15.766Z,100114.16
2023-03-12T03:19:01.136Z,100110.69
2023-03-12T03:21:46.687Z,100115.03
2023-03-12T03:24:32.317Z,100137.50
2023-03-12T03:27:17.493Z,100135.78
2023-03-12T03:30:04.073Z,100159.13
2023-03-12T03:32:52.391Z,100171.22
2023-03-12T03:35:38.234Z,100155.66
2023-03-12T03:38:23.745Z,100156.53
2023-03-12T03:41:09.484Z,100163.44
2023-03-12T03:44:00.985Z,100159.97
2023-03-12T03:46:49.994Z,100153.91
2023-03-12T03:49:35.505Z,100155.63
2023-03-12T03:52:21.508Z,100155.63
2023-03-12T03:55:07.368Z,100169.47
2023-03-12T03:57:52.905Z,100172.91
2023-03-12T04:00:39.592Z,100173.75
2023-03-12T04:03:25.197Z,100171.16
2023-03-12T04:06:11.599Z,100167.72
2023-03-12T04:08:59.199Z,100178.09
2023-03-12T04:11:46.586Z,100172.88
2023-03-12T04:14:32.940Z,100169.41
2023-03-12T04:17:19.524Z,100177.19
2023-03-12T04:20:09.607Z,100183.28
2023-03-12T04:22:55.716Z,100178.09
2023-03-12T04:25:41.562Z,100183.28
2023-03-12T04:28:26.857Z,100180.69
2023-03-12T04:31:12.929Z,100181.59
2023-03-12T04:34:03.121Z,100191.97
2023-03-12T04:36:49.009Z,100174.69
2023-03-12T04:39:34.381Z,100156.53
2023-03-12T04:42:20.313Z,100149.59
2023-03-12T04:45:07.433Z,100127.97
2023-03-12T04:47:56.527Z,100132.28
2023-03-12T04:50:42.671Z,100142.69
2023-03-12T04:53:28.195Z,100151.34
2023-03-12T04:56:14.519Z,100147.00
2023-03-12T04:59:01.280Z,100149.59
2023-03-12T05:01:48.210Z,100153.94
2023-03-12T05:04:39.060Z,100141.81
2023-03-12T05:07:24.810Z,100147.84
2023-03-12T05:10:10.743Z,100149.56
2023-03-12T05:12:56.334Z,100158.16
2023-03-12T05:15:42.314Z,100156.41
2023-03-12T05:18:27.671Z,100161.59
2023-03-12T05:21:19.795Z,100158.13
2023-03-12T05:24:07.080Z,100162.50
2023-03-12T05:26:52.739Z,100166.81
2023-03-12T05:29:41.585Z,100182.41
2023-03-12T05:32:27.437Z,100189.38
2023-03-12T05:35:13.149Z,100186.78
2023-03-12T05:37:59.644Z,100189.38
2023-03-12T05:40:53.401Z,100183.34
2023-03-12T05:43:39.361Z,100180.75
2023-03-12T05:46:26.724Z,100170.34
2023-03-12T05:49:12.025Z,100166.03
2023-03-12T05:51:57.540Z,100170.34
2023-03-12T05:54:43.315Z,100174.66
2023-03-12T05:57:30.095Z,100162.53
2023-03-12T06:00:17.048Z,100152.16
2023-03-12T06:03:11.968Z,100153.84
2023-03-12T06:05:57.628Z,100159.03
2023-03-12T06:08:43.236Z,100163.38
2023-03-12T06:11:32.283Z,100149.53
2023-03-12T06:14:18.100Z,100151.22
2023-03-12T06:17:03.419Z,100165.03
2023-03-12T06:19:52.839Z,100170.22
2023-03-12T06:22:39.325Z,100178.75
2023-03-12T06:25:24.491Z,100177.88
2023-03-12T06:28:09.880Z,100174.41
2023-03-12T06:30:56.176Z,100171.81
2023-03-12T06:33:41.443Z,100181.31
2023-03-12T06:36:26.876Z,100170.94
2023-03-12T06:39:12.302Z,100177.00
2023-03-12T06:41:57.702Z,100178.72
2023-03-12T06:44:42.948Z,100185.69
2023-03-12T06:47:28.186Z,100185.69
2023-03-12T06:50:13.570Z,100180.50
2023-03-12T06:52:58.868Z,100178.75
2023-03-12T06:55:45.107Z,100180.50
2023-03-12T06:58:30.814Z,100181.34
2023-03-12T07:01:16.246Z,100173.63
2023-03-12T07:04:01.692Z,100171.03
2023-03-12T07:06:50.602Z,100171.03
2023-03-12T07:09:36.180Z,100163.22
2023-03-12T07:12:21.544Z,100156.31
2023-03-12T07:15:07.362Z,100163.25
2023-03-12T07:17:52.881Z,100170.16
2023-03-12T07:20:40.730Z,100171.06
2023-03-12T07:23:26.000Z,100152.06
2023-03-12T07:26:12.792Z,100165.94
2023-03-12T07:28:58.347Z,100165.97
2023-03-12T07:31:43.631Z,100165.09
2023-03-12T07:34:29.119Z,100159.94
2023-03-12T07:37:14.708Z,100158.22
2023-03-12T07:40:00.032Z,100162.56
2023-03-12T07:42:45.438Z,100159.97
2023-03-12T07:45:31.395Z,100162.56
2023-03-12T07:48:19.975Z,100150.50
2023-03-12T07:51:06.297Z,100151.34
2023-03-12T07:53:51.949Z,100168.66
2023-03-12T07:56:37.715Z,100160.00
2023-03-12T07:59:24.051Z,100168.69
2023-03-12T08:02:11.039Z,100156.56
2023-03-12T08:04:56.169Z,100158.28
2023-03-12T08:07:41.482Z,100157.41
2023-03-12T08:10:27.082Z,100157.44
2023-03-12T08:13:13.008Z,100147.03
2023-03-12T08:15:58.372Z,100143.56
2023-03-12T08:18:43.951Z,100152.22
2023-03-12T08:21:29.187Z,100153.97
2023-03-12T08:24:15.713Z,100148.75
2023-03-12T08:27:01.322Z,100146.16
2023-03-12T08:29:47.071Z,100151.31
2023-03-12T08:32:32.679Z,100147.84
2023-03-12T08:35:18.162Z,100147.00
2023-03-12T08:38:03.516Z,100146.06
2023-03-12T08:40:59.357Z,100148.66
2023-03-12T08:43:44.629Z,100140.78
2023-03-12T08:46:30.037Z,100142.47
2023-03-12T08:49:15.425Z,100118.19
2023-03-12T08:52:00.804Z,100103.44
2023-03-12T08:54:46.362Z,100088.66
2023-03-12T08:57:32.598Z,100077.34
2023-03-12T09:00:18.335Z,100079.09
2023-03-12T09:03:03.816Z,100053.06
2023-03-12T09:05:49.969Z,100045.22
2023-03-12T09:08:35.390Z,100039.91
2023-03-12T09:11:21.271Z,100032.88
2023-03-12T09:17:12.227Z,100014.38
2023-03-12T09:19:57.948Z,100014.25
2023-03-12T09:22:43.637Z,100008.06
2023-03-12T09:25:29.165Z,100021.88
2023-03-12T09:28:16.579Z,100016.53
2023-03-12T09:31:03.431Z,100005.16
2023-03-12T09:33:48.797Z,100007.66
2023-03-12T09:36:34.295Z,100001.50
2023-03-12T09:39:20.909Z,100007.53
2023-03-12T09:42:12.310Z,100008.41
2023-03-12T09:45:02.168Z,99987.47
2023-03-12T09:47:51.810Z,99983.13
2023-03-12T09:50:43.570Z,99976.19
2023-03-12T09:53:33.517Z,99971.72
2023-03-12T09:56:21.617Z,99959.41
2023-03-12T09:59:12.698Z,99962.72
2023-03-12T10:02:03.916Z,99947.81
2023-03-12T10:05:06.508Z,99916.31
2023-03-12T10:08:17.436Z,99900.56
2023-03-12T10:11:42.973Z,99894.34
2023-03-12T10:14:42.718Z,99893.28
2023-03-12T10:17:53.024Z,99891.34
2023-03-12T10:20:58.646Z,99886.69
2023-03-12T10:24:29.100Z,99879.22
2023-03-12T10:27:17.572Z,99871.19
2023-03-12T10:30:13.246Z,99875.28
2023-03-12T10:33:06.902Z,99868.03
2023-03-12T10:35:53.657Z,99865.09
2023-03-12T10:38:39.198Z,99857.88
2023-03-12T10:41:29.240Z,99862.03
2023-03-12T10:44:21.402Z,99859.44
2023-03-12T10:47:33.987Z,99860.38
2023-03-12T10:50:22.279Z,99861.44
2023-03-12T10:53:26.784Z,99858.09
2023-03-12T10:56:18.016Z,99858.22
2023-03-12T10:59:21.230Z,99857.31
2023-03-12T11:02:22.046Z,99859.34
2023-03-12T11:05:35.438Z,99859.53
2023-03-12T11:08:29.564Z,99853.50
2023-03-12T11:11:31.631Z,99841.22
2023-03-12T11:14:29.448Z,99841.03
2023-03-12T11:17:24.610Z,99831.22
2023-03-12T11:20:26.478Z,99830.91
2023-03-12T11:23:17.541Z,99828.84
2023-03-12T11:26:11.792Z,99827.50
2023-03-12T11:29:06.304Z,99819.94
2023-03-12T11:32:10.810Z,99812.53
2023-03-12T11:34:56.258Z,99808.09
2023-03-12T11:37:53.808Z,99813.50
2023-03-12T11:41:06.905Z,99803.97
2023-03-12T11:44:04.171Z,99791.78
2023-03-12T11:47:26.996Z,99796.03
2023-03-12T11:50:28.200Z,99794.59
2023-03-12T11:53:54.300Z,99789.41
2023-03-12T11:56:42.023Z,99799.97
2023-03-12T11:59:46.627Z,99799.97
2023-03-12T12:03:04.830Z,99793.94
2023-03-12T12:05:59.290Z,99799.44
2023-03-12T12:09:18.493Z,99787.44
2023-03-12T12:12:53.565Z,99771.91
2023-03-12T12:15:45.068Z,99781.72
2023-03-12T12:18:43.373Z,99772.13
2023-03-12T12:21:44.634Z,99757.91
2023-03-12T12:25:07.060Z,99747.94
2023-03-12T12:27:55.506Z,99743.97
2023-03-12T12:31:08.550Z,99731.38
2023-03-12T12:34:23.884Z,99723.13
2023-03-12T12:37:22.624Z,99712.53
2023-03-12T12:40:20.212Z,99713.84
2023-03-12T12:43:36.197Z,99714.00
2023-03-12T12:46:36.025Z,99704.25
2023-03-12T12:49:29.798Z,99684.19
2023-03-12T12:52:21.975Z,99693.03
2023-03-12T12:55:22.696Z,99677.56
2023-03-12T12:58:22.160Z,99665.53
2023-03-12T13:01:09.446Z,99669.41
2023-03-12T13:04:02.178Z,99680.88
2023-03-12T13:07:20.072Z,99678.06
2023-03-12T13:10:07.458Z,99667.28
2023-03-12T13:12:56.310Z,99653.31
2023-03-12T13:15:43.879Z,99655.50
2023-03-12T13:18:30.379Z,99648.84
2023-03-12T13:21:29.464Z,99632.47
2023-03-12T13:24:36.328Z,99627.00
2023-03-12T13:27:42.777Z,99606.75
2023-03-12T13:30:48.123Z,99607.44
2023-03-12T13:33:45.014Z,99614.25
2023-03-12T13:36:30.768Z,99610.06
2023-03-12T13:39:16.031Z,99596.88
2023-03-12T13:42:22.326Z,99597.44
2023-03-12T13:45:28.941Z,99615.56
2023-03-12T13:48:20.417Z,99602.22
2023-03-12T13:51:18.460Z,99601.44
2023-03-12T13:54:04.821Z,99587.59
2023-03-12T13:57:03.695Z,99593.22
2023-03-12T13:59:51.256Z,99582.16
2023-03-12T14:02:43.110Z,99580.69
2023-03-12T14:05:29.314Z,99576.34
2023-03-12T14:08:42.582Z,99577.31
2023-03-12T14:11:39.434Z,99567.88
2023-03-12T14:14:38.551Z,99554.16
2023-03-12T14:17:27.434Z,99543.03
2023-03-12T14:20:19.161Z,99542.22
2023-03-12T14:23:07.880Z,99537.81
2023-03-12T14:26:00.417Z,99525.56
2023-03-12T14:29:08.065Z,99519.53
2023-03-12T14:31:57.413Z,99516.97
2023-03-12T14:34:48.037Z,99505.56
2023-03-12T14:37:40.414Z,99502.91
2023-03-12T14:40:50.439Z,99501.13
2023-03-12T14:43:36.117Z,99502.81
2023-03-12T14:46:23.693Z,99485.41
2023-03-12T14:49:19.662Z,99492.22
2023-03-12T14:52:04.956Z,99479.91
2023-03-12T14:55:24.738Z,99470.38
2023-03-12T14:58:17.778Z,99475.75
2023-03-12T15:01:06.839Z,99460.28
2023-03-12T15:04:05.198Z,99448.19
2023-03-12T15:06:59.241Z,99447.47
2023-03-12T15:09:47.656Z,99439.69
2023-03-12T15:12:38.294Z,99433.63
2023-03-12T15:15:52.302Z,99407.53
2023-03-12T15:18:38.146Z,99412.81
2023-03-12T15:21:24.683Z,99405.88
2023-03-12T15:24:13.479Z,99399.91
2023-03-12T15:27:31.418Z,99399.84
2023-03-12T15:30:27.225Z,99384.22
2023-03-12T15:33:24.691Z,99373.84
2023-03-12T15:36:19.586Z,99376.47
2023-03-12T15:39:13.616Z,99364.38
2023-03-12T15:42:08.886Z,99353.06
2023-03-12T15:45:03.309Z,99356.44
2023-03-12T15:47:50.617Z,99355.59
2023-03-12T15:50:41.929Z,99346.28
2023-03-12T15:53:33.748Z,99331.56
2023-03-12T15:56:22.868Z,99339.63
2023-03-12T15:59:17.378Z,99330.16
2023-03-12T16:02:02.981Z,99335.47
2023-03-12T16:04:48.418Z,99313.78
2023-03-12T16:07:33.830Z,99303.38
2023-03-12T16:10:21.241Z,99293.91
2023-03-12T16:13:06.574Z,99296.63
2023-03-12T16:15:52.171Z,99282.72
2023-03-12T16:18:37.767Z,99286.22
2023-03-12T16:21:23.219Z,99279.19
2023-03-12T16:24:09.346Z,99271.28
2023-03-12T16:26:58.139Z,99263.38
2023-03-12T16:29:43.818Z,99259.75
2023-03-12T16:32:29.731Z,99244.00
2023-03-12T16:35:18.720Z,99240.41
2023-03-12T16:38:04.351Z,99237.72
2023-03-12T16:40:52.134Z,99240.31
2023-03-12T16:43:37.680Z,99218.38
2023-03-12T16:46:23.522Z,99211.41
2023-03-12T16:49:15.647Z,99205.13
2023-03-12T16:52:02.440Z,99197.06
2023-03-12T16:54:52.286Z,99192.56
2023-03-12T16:57:41.363Z,99178.56
2023-03-12T17:00:32.834Z,99168.94
2023-03-12T17:03:30.193Z,99155.88
2023-03-12T17:06:19.122Z,99141.00
2023-03-12T17:09:04.552Z,99124.34
2023-03-12T17:11:51.735Z,99116.47
2023-03-12T17:14:37.571Z,99109.34
2023-03-12T17:17:23.388Z,99098.94
2023-03-12T17:20:13.603Z,99093.72
2023-03-12T17:22:59.446Z,99081.56
2023-03-12T17:25:45.546Z,99081.69
2023-03-12T17:28:31.311Z,99069.50
2023-03-12T17:31:16.696Z,99066.97
2023-03-12T17:34:04.027Z,99057.38
2023-03-12T17:36:49.493Z,99052.97
2023-03-12T17:39:35.720Z,99043.44
2023-03-12T17:42:21.363Z,99038.28
2023-03-12T17:45:08.297Z,99027.75
2023-03-12T17:47:53.538Z,99026.09
2023-03-12T17:50:39.114Z,99013.19
2023-03-12T17:53:25.060Z,99010.00
2023-03-12T17:56:12.685Z,99012.31
2023-03-12T17:58:58.324Z,98996.19
2023-03-12T18:01:43.401Z,98989.19
2023-03-12T18:04:28.884Z,98991.50
2023-03-12T18:07:14.524Z,98982.53
2023-03-12T18:09:59.986Z,98986.34
2023-03-12T18:12:45.549Z,98979.66
2023-03-12T18:15:30.776Z,98966.09
2023-03-12T18:18:16.228Z,98965.47
2023-03-12T18:21:01.664Z,98956.16
2023-03-12T18:23:46.965Z,98947.72
2023-03-12T18:26:32.408Z,98945.19
2023-03-12T18:29:17.814Z,98942.69
2023-03-12T18:32:04.108Z,98943.63
2023-03-12T18:34:49.656Z,98927.38
2023-03-12T18:37:34.953Z,98913.63
2023-03-12T18:40:20.170Z,98913.63
2023-03-12T18:43:05.508Z,98902.31
2023-03-12T18:45:50.844Z,98893.66
2023-03-12T18:48:36.192Z,98878.03
2023-03-12T18:51:21.636Z,98870.16
2023-03-12T18:54:07.380Z,98868.44
2023-03-12T18:56:52.586Z,98865.84
2023-03-12T18:59:38.633Z,98859.00
2023-03-12T19:02:24.200Z,98860.72
2023-03-12T19:05:11.143Z,98844.22
2023-03-12T19:07:56.861Z,98833.84
2023-03-12T19:10:43.450Z,98831.22
2023-03-12T19:13:29.133Z,98818.25
2023-03-12T19:16:17.829Z,98804.41
2023-03-12T19:19:03.191Z,98792.41
2023-03-12T19:21:48.937Z,98783.75
2023-03-12T19:24:34.537Z,98774.34
2023-03-12T19:27:19.800Z,98774.38
2023-03-12T19:30:05.826Z,98774.47
2023-03-12T19:32:51.189Z,98774.47
2023-03-12T19:35:41.177Z,98777.97
2023-03-12T19:38:26.770Z,98765.03
2023-03-12T19:41:12.362Z,98747.75
2023-03-12T19:43:57.913Z,98737.38
2023-03-12T19:46:43.362Z,98721.03
2023-03-12T19:49:29.917Z,98721.88
2023-03-12T19:52:15.563Z,98704.56
2023-03-12T19:55:05.263Z,98697.66
2023-03-12T19:57:50.894Z,98682.13
2023-03-12T20:00:36.658Z,98681.25
2023-03-12T20:03:23.195Z,98676.09
2023-03-12T20:06:10.547Z,98679.63
2023-03-12T20:08:56.231Z,98672.69
2023-03-12T20:11:41.655Z,98668.28
2023-03-12T20:14:27.610Z,98666.50
2023-03-12T20:17:13.354Z,98659.63
2023-03-12T20:19:59.142Z,98654.44
2023-03-12T20:22:44.516Z,98647.50
2023-03-12T20:25:29.963Z,98638.97
2023-03-12T20:28:17.024Z,98626.88
2023-03-12T20:31:14.273Z,98619.97
2023-03-12T20:33:59.894Z,98620.94
2023-03-12T20:36:45.575Z,98613.25
2023-03-12T20:39:30.874Z,98606.38
2023-03-12T20:42:16.312Z,98598.56
2023-03-12T20:45:01.734Z,98575.06
2023-03-12T20:47:47.201Z,98588.56
2023-03-12T20:50:34.161Z,98584.97
2023-03-12T20:53:19.503Z,98569.56
2023-03-12T20:56:07.015Z,98572.59
2023-03-12T20:58:53.458Z,98561.06
2023-03-12T21:01:39.347Z,98569.47
2023-03-12T21:04:24.796Z,98550.88
2023-03-12T21:07:10.169Z,98557.66
2023-03-12T21:09:55.723Z,98554.06
2023-03-12T21:12:42.130Z,98547.78
2023-03-12T21:15:27.434Z,98546.66
2023-03-12T21:18:13.005Z,98528.22
2023-03-12T21:21:03.484Z,98520.22
2023-03-12T21:23:49.251Z,98513.09
2023-03-12T21:26:34.549Z,98499.09
2023-03-12T21:29:19.893Z,98492.75
2023-03-12T21:32:05.368Z,98472.63
2023-03-12T21:34:51.091Z,98474.97
2023-03-12T21:37:37.159Z,98473.81
2023-03-12T21:40:23.637Z,98470.19
2023-03-12T21:43:09.192Z,98459.53
2023-03-12T21:45:54.511Z,98463.72
2023-03-12T21:48:40.351Z,98435.03
2023-03-12T21:51:26.334Z,98402.06
2023-03-12T21:54:12.143Z,98417.53
2023-03-12T21:56:57.878Z,98412.31
2023-03-12T21:59:43.090Z,98413.19
2023-03-12T22:02:29.681Z,98399.09
2023-03-12T22:05:15.354Z,98391.97
2023-03-12T22:08:00.932Z,98363.97
2023-03-12T22:10:46.238Z,98341.31
2023-03-12T22:13:31.771Z,98329.03
2023-03-12T22:16:17.697Z,98316.72
2023-03-12T22:19:03.468Z,98320.25
2023-03-12T22:21:48.812Z,98306.47
2023-03-12T22:24:34.183Z,98318.75
2023-03-12T22:27:19.430Z,98317.13
2023-03-12T22:30:05.467Z,98323.25
2023-03-12T22:32:51.337Z,98311.94
2023-03-12T22:35:47.143Z,98309.72
2023-03-12T22:38:33.130Z,98287.50
2023-03-12T22:41:21.313Z,98290.78
2023-03-12T22:44:07.733Z,98296.00
2023-03-12T22:46:53.162Z,98285.56
2023-03-12T22:49:38.448Z,98271.78
2023-03-12T22:52:24.017Z,98274.53
2023-03-12T22:55:09.766Z,98269.59
2023-03-12T22:57:55.435Z,98252.38
2023-03-12T23:00:40.948Z,98239.25
2023-03-12T23:03:27.194Z,98237.13
2023-03-12T23:06:21.887Z,98226.25
2023-03-12T23:09:07.345Z,98216.59
2023-03-12T23:11:52.633Z,98211.59
2023-03-12T23:14:37.911Z,98212.59
2023-03-12T23:17:23.206Z,98202.81
2023-03-12T23:20:09.935Z,98180.72
2023-03-12T23:22:55.491Z,98180.81
2023-03-12T23:25:40.871Z,98168.63
2023-03-12T23:28:28.265Z,98160.84
2023-03-12T23:31:15.770Z,98151.31
2023-03-12T23:34:01.298Z,98153.03
2023-03-12T23:36:46.656Z,98144.31
2023-03-12T23:39:35.353Z,98144.47
2023-03-12T23:42:27.176Z,98133.28
2023-03-12T23:45:12.770Z,98123.66
2023-03-12T23:47:58.128Z,98101.22
2023-03-12T23:50:43.630Z,98114.50
2023-03-12T23:53:28.935Z,98106.75
2023-03-12T23:56:20.598Z,98104.06
2023-03-12T23:59:08.337Z,98098.84
